Barkley Observed Data For Previous 48 Hours

Caption
Day and Hour Reservoir Elevation (behind dam)* Tailwater Elevation (below dam)* Average Hourly Discharge*
12/10/2018 1 AM CST 355.55 322.85 36,400
12/10/2018 2 AM CST 355.55 322.75 35,700
12/10/2018 3 AM CST 355.55 322.75 36,200
12/10/2018 4 AM CST 355.60 322.70 36,100
12/10/2018 5 AM CST 355.60 322.70 36,700
12/10/2018 6 AM CST 355.65 322.65 35,200
12/10/2018 7 AM CST 355.65 322.65 36,400
12/10/2018 8 AM CST 355.75 322.55 36,100
12/10/2018 9 AM CST 355.75 322.55 36,600
12/10/2018 10 AM CST 355.75 322.45 36,400
12/10/2018 11 AM CST 355.75 322.45 36,400
12/10/2018 12 PM CST 355.75 322.75 42,000
12/10/2018 1 PM CST 355.75 323.05 47,200
12/10/2018 2 PM CST 355.75 323.45 51,400
12/10/2018 3 PM CST 355.70 323.50 51,400
12/10/2018 4 PM CST 355.70 323.40 51,400
12/10/2018 5 PM CST 355.70 323.40 51,400
12/10/2018 6 PM CST 355.70 323.40 51,400
12/10/2018 7 PM CST 355.75 323.45 51,400
12/10/2018 8 PM CST 355.75 323.55 52,000
12/10/2018 9 PM CST 355.75 323.45 50,800
12/10/2018 10 PM CST 355.70 323.50 51,400
12/10/2018 11 PM CST 355.75 323.55 51,400
12/11/2018 12 AM CST 355.75 323.45 52,000
12/11/2018 1 AM CST 355.75 323.45 51,400
12/11/2018 2 AM CST 355.75 323.45 51,900
12/11/2018 3 AM CST 355.75 323.45 51,400
12/11/2018 4 AM CST 355.75 323.35 51,100
12/11/2018 5 AM CST 355.75 323.35 51,700
12/11/2018 6 AM CST 355.75 323.35 51,100
12/11/2018 7 AM CST 355.80 323.30 50,900
12/11/2018 8 AM CST 355.80 323.30 52,100
12/11/2018 9 AM CST 355.80 323.20 51,900
12/11/2018 10 AM CST 355.80 323.20 51,300
12/11/2018 11 AM CST 355.80 323.10 52,300
12/11/2018 12 PM CST 355.80 323.10 51,700
12/11/2018 1 PM CST - 999.00 - 999.00 51,000
12/11/2018 2 PM CST - 999.00 - 999.00 51,500
12/11/2018 3 PM CST 355.75 322.85 51,400
12/11/2018 4 PM CST 355.75 322.85 51,400
12/11/2018 5 PM CST 355.75 322.75 51,700
12/11/2018 6 PM CST 355.75 322.75 51,100
12/11/2018 7 PM CST 355.75 322.65 51,600
12/11/2018 8 PM CST 355.75 322.65 51,600
12/11/2018 9 PM CST 355.75 322.55 51,400
12/11/2018 10 PM CST 355.75 322.45 51,200
12/11/2018 11 PM CST 355.70 322.40 52,200
12/12/2018 12 AM CST 355.75 322.55 51,400
12/12/2018 1 AM CST 355.75 322.35 52,100
12/12/2018 2 AM CST 355.75 322.25 51,400

Elevations are in feet above sea level. Discharges are in cubic feet per second and are reported at the end of the hour.